sensor_id;sensor_type;location;lat;lon;timestamp;pressure;altitude;pressure_sealevel;temperature;humidity
61957;BME280;47916;45.544;10.166;2022-07-24T00:00:05;100110.47;;;30.50;51.02
61957;BME280;47916;45.544;10.166;2022-07-24T00:00:18;100114.00;;;30.50;51.05
61957;BME280;47916;45.544;10.166;2022-07-24T00:00:30;100116.72;;;30.50;51.18
61957;BME280;47916;45.544;10.166;2022-07-24T00:00:41;100112.38;;;30.49;51.12
61957;BME280;47916;45.544;10.166;2022-07-24T00:00:55;100115.09;;;30.49;51.16
61957;BME280;47916;45.544;10.166;2022-07-24T00:01:07;100110.97;;;30.47;51.18
61957;BME280;47916;45.544;10.166;2022-07-24T00:01:19;100115.09;;;30.49;51.08
61957;BME280;47916;45.544;10.166;2022-07-24T00:01:32;100109.63;;;30.49;51.13
61957;BME280;47916;45.544;10.166;2022-07-24T00:01:44;100117.84;;;30.49;51.10
61957;BME280;47916;45.544;10.166;2022-07-24T00:01:55;100108.53;;;30.50;51.03
61957;BME280;47916;45.544;10.166;2022-07-24T00:02:07;100112.38;;;30.49;51.10
61957;BME280;47916;45.544;10.166;2022-07-24T00:02:18;100115.09;;;30.49;51.25
61957;BME280;47916;45.544;10.166;2022-07-24T00:02:34;100114.28;;;30.49;51.05
61957;BME280;47916;45.544;10.166;2022-07-24T00:02:46;100118.66;;;30.50;51.08
61957;BME280;47916;45.544;10.166;2022-07-24T00:02:57;100110.97;;;30.47;51.08
61957;BME280;47916;45.544;10.166;2022-07-24T00:03:09;100116.19;;;30.48;51.26
61957;BME280;47916;45.544;10.166;2022-07-24T00:03:21;100117.25;;;30.47;51.26
61957;BME280;47916;45.544;10.166;2022-07-24T00:03:33;100113.69;;;30.47;51.31
61957;BME280;47916;45.544;10.166;2022-07-24T00:03:45;100114.81;;;30.46;51.12
61957;BME280;47916;45.544;10.166;2022-07-24T00:03:57;100110.41;;;30.45;51.52
61957;BME280;47916;45.544;10.166;2022-07-24T00:04:08;100109.06;;;30.47;51.20
61957;BME280;47916;45.544;10.166;2022-07-24T00:04:20;100113.97;;;30.45;51.13
61957;BME280;47916;45.544;10.166;2022-07-24T00:04:33;100112.31;;;30.44;50.96
61957;BME280;47916;45.544;10.166;2022-07-24T00:04:46;100113.97;;;30.45;51.19
61957;BME280;47916;45.544;10.166;2022-07-24T00:04:59;100123.25;;;30.44;51.23
61957;BME280;47916;45.544;10.166;2022-07-24T00:05:10;100115.34;;;30.43;51.09
61957;BME280;47916;45.544;10.166;2022-07-24T00:05:22;100121.88;;;30.42;51.23
61957;BME280;47916;45.544;10.166;2022-07-24T00:05:33;100115.59;;;30.41;51.15
61957;BME280;47916;45.544;10.166;2022-07-24T00:05:45;100119.38;;;30.40;51.35
61957;BME280;47916;45.544;10.166;2022-07-24T00:05:56;100119.38;;;30.40;51.26
61957;BME280;47916;45.544;10.166;2022-07-24T00:06:08;100114.72;;;30.41;51.53
61957;BME280;47916;45.544;10.166;2022-07-24T00:06:19;100125.66;;;30.41;51.46
61957;BME280;47916;45.544;10.166;2022-07-24T00:06:31;100124.81;;;30.40;51.51
61957;BME280;47916;45.544;10.166;2022-07-24T00:06:43;100124.59;;;30.42;51.40
61957;BME280;47916;45.544;10.166;2022-07-24T00:06:54;100120.81;;;30.43;51.34
61957;BME280;47916;45.544;10.166;2022-07-24T00:07:06;100123.78;;;30.41;51.38
61957;BME280;47916;45.544;10.166;2022-07-24T00:07:17;100121.59;;;30.43;51.36
61957;BME280;47916;45.544;10.166;2022-07-24T00:07:29;100123.25;;;30.44;51.29
61957;BME280;47916;45.544;10.166;2022-07-24T00:07:40;100121.03;;;30.41;51.12
61957;BME280;47916;45.544;10.166;2022-07-24T00:07:52;100121.59;;;30.43;51.34
61957;BME280;47916;45.544;10.166;2022-07-24T00:08:03;100124.59;;;30.42;51.29
61957;BME280;47916;45.544;10.166;2022-07-24T00:08:15;100121.88;;;30.42;51.25
61957;BME280;47916;45.544;10.166;2022-07-24T00:08:26;100118.31;;;30.41;51.38
61957;BME280;47916;45.544;10.166;2022-07-24T00:08:38;100125.09;;;30.39;51.39
61957;BME280;47916;45.544;10.166;2022-07-24T00:08:50;100127.00;;;30.38;51.31
61957;BME280;47916;45.544;10.166;2022-07-24T00:09:03;100125.34;;;30.37;51.34
61957;BME280;47916;45.544;10.166;2022-07-24T00:09:16;100127.00;;;30.38;51.46
61957;BME280;47916;45.544;10.166;2022-07-24T00:09:27;100127.00;;;30.38;51.52
61957;BME280;47916;45.544;10.166;2022-07-24T00:09:39;100125.94;;;30.39;51.50
61957;BME280;47916;45.544;10.166;2022-07-24T00:09:50;100128.66;;;30.39;51.33
61957;BME280;47916;45.544;10.166;2022-07-24T00:10:03;100126.72;;;30.40;51.28
61957;BME280;47916;45.544;10.166;2022-07-24T00:10:14;100131.41;;;30.39;51.33
61957;BME280;47916;45.544;10.166;2022-07-24T00:10:26;100131.13;;;30.41;51.57
61957;BME280;47916;45.544;10.166;2022-07-24T00:10:38;100125.66;;;30.41;51.48
61957;BME280;47916;45.544;10.166;2022-07-24T00:10:49;100126.72;;;30.40;51.43
61957;BME280;47916;45.544;10.166;2022-07-24T00:11:01;100131.13;;;30.41;51.41
61957;BME280;47916;45.544;10.166;2022-07-24T00:11:12;100131.41;;;30.39;51.38
61957;BME280;47916;45.544;10.166;2022-07-24T00:11:23;100134.72;;;30.41;51.41
61957;BME280;47916;45.544;10.166;2022-07-24T00:11:35;100133.84;;;30.41;51.28
61957;BME280;47916;45.544;10.166;2022-07-24T00:11:46;100124.81;;;30.40;51.19
61957;BME280;47916;45.544;10.166;2022-07-24T00:11:59;100133.84;;;30.41;51.30
61957;BME280;47916;45.544;10.166;2022-07-24T00:12:11;100129.25;;;30.41;51.35
61957;BME280;47916;45.544;10.166;2022-07-24T00:12:22;100135.53;;;30.42;51.08
61957;BME280;47916;45.544;10.166;2022-07-24T00:12:34;100126.72;;;30.40;51.34
61957;BME280;47916;45.544;10.166;2022-07-24T00:12:46;100130.06;;;30.42;51.21
61957;BME280;47916;45.544;10.166;2022-07-24T00:12:57;100133.63;;;30.42;51.48
61957;BME280;47916;45.544;10.166;2022-07-24T00:13:09;100129.25;;;30.41;51.36
61957;BME280;47916;45.544;10.166;2022-07-24T00:13:20;100129.25;;;30.41;51.29
61957;BME280;47916;45.544;10.166;2022-07-24T00:13:32;100131.72;;;30.43;51.40
61957;BME280;47916;45.544;10.166;2022-07-24T00:13:43;100137.44;;;30.41;51.24
61957;BME280;47916;45.544;10.166;2022-07-24T00:13:55;100130.06;;;30.42;51.15
61957;BME280;47916;45.544;10.166;2022-07-24T00:14:07;100131.97;;;30.41;51.30
61957;BME280;47916;45.544;10.166;2022-07-24T00:14:23;100133.03;;;30.40;51.15
61957;BME280;47916;45.544;10.166;2022-07-24T00:14:34;100129.47;;;30.40;51.18
61957;BME280;47916;45.544;10.166;2022-07-24T00:14:46;100125.09;;;30.39;51.35
61957;BME280;47916;45.544;10.166;2022-07-24T00:14:58;100134.13;;;30.39;51.33
61957;BME280;47916;45.544;10.166;2022-07-24T00:15:09;100129.75;;;30.38;51.36
61957;BME280;47916;45.544;10.166;2022-07-24T00:15:21;100137.38;;;30.36;51.44
61957;BME280;47916;45.544;10.166;2022-07-24T00:15:32;100127.53;;;30.35;51.22
61957;BME280;47916;45.544;10.166;2022-07-24T00:15:44;100128.63;;;30.34;51.33
61957;BME280;47916;45.544;10.166;2022-07-24T00:15:56;100131.34;;;30.34;51.37
61957;BME280;47916;45.544;10.166;2022-07-24T00:16:07;100127.78;;;30.34;51.25
61957;BME280;47916;45.544;10.166;2022-07-24T00:16:19;100126.13;;;30.33;51.29
61957;BME280;47916;45.544;10.166;2022-07-24T00:16:30;100132.19;;;30.35;51.50
61957;BME280;47916;45.544;10.166;2022-07-24T00:16:55;100129.69;;;30.33;51.56
61957;BME280;47916;45.544;10.166;2022-07-24T00:17:07;100131.34;;;30.34;51.48
61957;BME280;47916;45.544;10.166;2022-07-24T00:17:18;100128.63;;;30.34;51.54
61957;BME280;47916;45.544;10.166;2022-07-24T00:17:30;100133.25;;;30.34;51.44
61957;BME280;47916;45.544;10.166;2022-07-24T00:17:42;100131.34;;;30.34;51.46
61957;BME280;47916;45.544;10.166;2022-07-24T00:17:53;100132.44;;;30.33;51.52
61957;BME280;47916;45.544;10.166;2022-07-24T00:18:05;100127.78;;;30.34;51.49
61957;BME280;47916;45.544;10.166;2022-07-24T00:18:16;100128.88;;;30.33;51.43
61957;BME280;47916;45.544;10.166;2022-07-24T00:18:27;100133.53;;;30.32;51.65
61957;BME280;47916;45.544;10.166;2022-07-24T00:18:39;100123.94;;;30.30;51.58
61957;BME280;47916;45.544;10.166;2022-07-24T00:18:50;100131.88;;;30.31;51.61
61957;BME280;47916;45.544;10.166;2022-07-24T00:19:02;100128.06;;;30.32;51.60
61957;BME280;47916;45.544;10.166;2022-07-24T00:19:14;100135.44;;;30.32;51.62
61957;BME280;47916;45.544;10.166;2022-07-24T00:19:25;100136.50;;;30.31;51.60
61957;BME280;47916;45.544;10.166;2022-07-24T00:19:37;100132.13;;;30.30;51.49
61957;BME280;47916;45.544;10.166;2022-07-24T00:19:48;100134.03;;;30.29;51.48
61957;BME280;47916;45.544;10.166;2022-07-24T00:19:59;100139.50;;;30.29;51.37
61957;BME280;47916;45.544;10.166;2022-07-24T00:20:11;100134.03;;;30.29;51.49
61957;BME280;47916;45.544;10.166;2022-07-24T00:20:23;100138.69;;;30.29;51.59
61957;BME280;47916;45.544;10.166;2022-07-24T00:20:34;100140.59;;;30.28;51.78
61957;BME280;47916;45.544;10.166;2022-07-24T00:20:47;100134.31;;;30.28;51.75
61957;BME280;47916;45.544;10.166;2022-07-24T00:20:59;100134.31;;;30.28;51.68
61957;BME280;47916;45.544;10.166;2022-07-24T00:21:11;100132.66;;;30.27;51.71
61957;BME280;47916;45.544;10.166;2022-07-24T00:21:22;100128.25;;;30.26;51.72
61957;BME280;47916;45.544;10.166;2022-07-24T00:21:34;100131.56;;;30.28;51.76
61957;BME280;47916;45.544;10.166;2022-07-24T00:21:45;100128.84;;;30.28;51.83
61957;BME280;47916;45.544;10.166;2022-07-24T00:21:57;100131.00;;;30.26;51.71
61957;BME280;47916;45.544;10.166;2022-07-24T00:22:08;100134.56;;;30.26;51.72
61957;BME280;47916;45.544;10.166;2022-07-24T00:22:20;100137.28;;;30.26;51.76
61957;BME280;47916;45.544;10.166;2022-07-24T00:22:31;100131.81;;;30.26;51.84
61957;BME280;47916;45.544;10.166;2022-07-24T00:22:45;100131.00;;;30.26;51.69
61957;BME280;47916;45.544;10.166;2022-07-24T00:22:57;100129.09;;;30.26;51.82
61957;BME280;47916;45.544;10.166;2022-07-24T00:23:08;100131.81;;;30.26;51.81
61957;BME280;47916;45.544;10.166;2022-07-24T00:23:20;100131.81;;;30.26;51.91
61957;BME280;47916;45.544;10.166;2022-07-24T00:23:31;100131.81;;;30.26;51.82
61957;BME280;47916;45.544;10.166;2022-07-24T00:23:43;100131.56;;;30.28;51.75
61957;BME280;47916;45.544;10.166;2022-07-24T00:23:54;100130.75;;;30.27;51.71
61957;BME280;47916;45.544;10.166;2022-07-24T00:24:06;100126.34;;;30.26;51.81
61957;BME280;47916;45.544;10.166;2022-07-24T00:24:17;100125.53;;;30.26;51.70
61957;BME280;47916;45.544;10.166;2022-07-24T00:24:29;100128.53;;;30.24;51.85
61957;BME280;47916;45.544;10.166;2022-07-24T00:24:41;100126.63;;;30.25;51.83
61957;BME280;47916;45.544;10.166;2022-07-24T00:24:52;100129.09;;;30.26;51.84
61957;BME280;47916;45.544;10.166;2022-07-24T00:25:04;100129.09;;;30.26;52.03
61957;BME280;47916;45.544;10.166;2022-07-24T00:25:16;100125.53;;;30.26;52.21
61957;BME280;47916;45.544;10.166;2022-07-24T00:25:28;100122.00;;;30.25;51.90
61957;BME280;47916;45.544;10.166;2022-07-24T00:25:39;100127.72;;;30.24;51.90
61957;BME280;47916;45.544;10.166;2022-07-24T00:25:52;100128.78;;;30.23;51.62
61957;BME280;47916;45.544;10.166;2022-07-24T00:26:03;100126.06;;;30.23;51.73
61957;BME280;47916;45.544;10.166;2022-07-24T00:26:15;100127.97;;;30.22;51.69
61957;BME280;47916;45.544;10.166;2022-07-24T00:26:26;100127.16;;;30.22;51.69
61957;BME280;47916;45.544;10.166;2022-07-24T00:26:38;100122.50;;;30.22;51.54
61957;BME280;47916;45.544;10.166;2022-07-24T00:26:49;100124.16;;;30.23;51.97
61957;BME280;47916;45.544;10.166;2022-07-24T00:27:02;100127.72;;;30.24;51.53
61957;BME280;47916;45.544;10.166;2022-07-24T00:27:13;100121.69;;;30.22;51.58
61957;BME280;47916;45.544;10.166;2022-07-24T00:27:26;100129.63;;;30.23;51.74
61957;BME280;47916;45.544;10.166;2022-07-24T00:27:38;100118.97;;;30.22;51.81
61957;BME280;47916;45.544;10.166;2022-07-24T00:27:49;100120.03;;;30.21;51.83
61957;BME280;47916;45.544;10.166;2022-07-24T00:28:01;100126.34;;;30.21;51.83
61957;BME280;47916;45.544;10.166;2022-07-24T00:28:19;100124.69;;;30.20;51.82
61957;BME280;47916;45.544;10.166;2022-07-24T00:28:31;100120.28;;;30.19;51.95
61957;BME280;47916;45.544;10.166;2022-07-24T00:28:42;100124.44;;;30.22;51.95
61957;BME280;47916;45.544;10.166;2022-07-24T00:28:54;100124.44;;;30.22;52.06
61957;BME280;47916;45.544;10.166;2022-07-24T00:29:05;100123.59;;;30.21;51.96
61957;BME280;47916;45.544;10.166;2022-07-24T00:29:17;100120.88;;;30.21;51.91
61957;BME280;47916;45.544;10.166;2022-07-24T00:29:29;100118.97;;;30.22;51.73
61957;BME280;47916;45.544;10.166;2022-07-24T00:29:40;100129.06;;;30.21;51.94
61957;BME280;47916;45.544;10.166;2022-07-24T00:29:51;100121.94;;;30.20;51.90
61957;BME280;47916;45.544;10.166;2022-07-24T00:30:03;100121.13;;;30.20;51.95
61957;BME280;47916;45.544;10.166;2022-07-24T00:30:15;100121.13;;;30.20;51.97
61957;BME280;47916;45.544;10.166;2022-07-24T00:30:26;100122.78;;;30.21;52.12
61957;BME280;47916;45.544;10.166;2022-07-24T00:30:38;100126.88;;;30.18;52.03
61957;BME280;47916;45.544;10.166;2022-07-24T00:30:52;100123.56;;;30.16;52.10
61957;BME280;47916;45.544;10.166;2022-07-24T00:31:03;100126.28;;;30.16;52.14
61957;BME280;47916;45.544;10.166;2022-07-24T00:31:16;100120.81;;;30.16;52.17
61957;BME280;47916;45.544;10.166;2022-07-24T00:31:27;100124.38;;;30.17;52.17
61957;BME280;47916;45.544;10.166;2022-07-24T00:31:43;100129.84;;;30.17;52.16
61957;BME280;47916;45.544;10.166;2022-07-24T00:31:55;100117.25;;;30.16;52.02
61957;BME280;47916;45.544;10.166;2022-07-24T00:32:06;100123.31;;;30.18;52.06
61957;BME280;47916;45.544;10.166;2022-07-24T00:32:18;100124.38;;;30.17;51.85
61957;BME280;47916;45.544;10.166;2022-07-24T00:32:30;100124.38;;;30.17;52.04
61957;BME280;47916;45.544;10.166;2022-07-24T00:32:42;100123.31;;;30.18;51.96
61957;BME280;47916;45.544;10.166;2022-07-24T00:32:54;100124.38;;;30.17;51.97
61957;BME280;47916;45.544;10.166;2022-07-24T00:33:06;100123.56;;;30.16;51.98
61957;BME280;47916;45.544;10.166;2022-07-24T00:33:17;100123.56;;;30.16;52.04
61957;BME280;47916;45.544;10.166;2022-07-24T00:33:29;100118.91;;;30.17;51.97
61957;BME280;47916;45.544;10.166;2022-07-24T00:33:40;100125.22;;;30.17;52.04
61957;BME280;47916;45.544;10.166;2022-07-24T00:33:52;100124.38;;;30.17;51.94
61957;BME280;47916;45.544;10.166;2022-07-24T00:34:04;100125.22;;;30.17;51.94
61957;BME280;47916;45.544;10.166;2022-07-24T00:34:15;100124.38;;;30.17;52.05
61957;BME280;47916;45.544;10.166;2022-07-24T00:34:27;100123.56;;;30.16;52.08
61957;BME280;47916;45.544;10.166;2022-07-24T00:34:38;100128.47;;;30.14;52.18
61957;BME280;47916;45.544;10.166;2022-07-24T00:34:49;100120.53;;;30.12;52.18
61957;BME280;47916;45.544;10.166;2022-07-24T00:35:01;100122.41;;;30.12;52.34
61957;BME280;47916;45.544;10.166;2022-07-24T00:35:13;100123.25;;;30.12;52.17
61957;BME280;47916;45.544;10.166;2022-07-24T00:35:24;100127.34;;;30.10;52.28
61957;BME280;47916;45.544;10.166;2022-07-24T00:35:36;100124.59;;;30.10;52.28
61957;BME280;47916;45.544;10.166;2022-07-24T00:35:47;100123.53;;;30.11;52.27
61957;BME280;47916;45.544;10.166;2022-07-24T00:35:58;100124.31;;;30.11;52.29
61957;BME280;47916;45.544;10.166;2022-07-24T00:36:11;100120.78;;;30.11;52.21
61957;BME280;47916;45.544;10.166;2022-07-24T00:36:22;100124.31;;;30.11;52.19
61957;BME280;47916;45.544;10.166;2022-07-24T00:36:34;100122.69;;;30.10;52.25
61957;BME280;47916;45.544;10.166;2022-07-24T00:36:45;100124.31;;;30.11;52.17
61957;BME280;47916;45.544;10.166;2022-07-24T00:36:57;100128.72;;;30.12;52.23
61957;BME280;47916;45.544;10.166;2022-07-24T00:37:08;100129.00;;;30.11;52.14
61957;BME280;47916;45.544;10.166;2022-07-24T00:37:20;100117.25;;;30.10;52.12
61957;BME280;47916;45.544;10.166;2022-07-24T00:37:31;100118.88;;;30.11;52.20
61957;BME280;47916;45.544;10.166;2022-07-24T00:37:42;100118.06;;;30.11;52.14
61957;BME280;47916;45.544;10.166;2022-07-24T00:37:54;100121.59;;;30.11;52.20
61957;BME280;47916;45.544;10.166;2022-07-24T00:38:05;100120.78;;;30.11;52.18
61957;BME280;47916;45.544;10.166;2022-07-24T00:38:17;100116.97;;;30.12;52.08
61957;BME280;47916;45.544;10.166;2022-07-24T00:38:28;100122.69;;;30.10;52.07
61957;BME280;47916;45.544;10.166;2022-07-24T00:38:41;100118.88;;;30.11;52.17
61957;BME280;47916;45.544;10.166;2022-07-24T00:38:52;100119.97;;;30.10;52.27
61957;BME280;47916;45.544;10.166;2022-07-24T00:39:04;100113.41;;;30.11;52.20
61957;BME280;47916;45.544;10.166;2022-07-24T00:39:17;100126.25;;;30.11;52.25
61957;BME280;47916;45.544;10.166;2022-07-24T00:39:28;100124.31;;;30.11;52.18
61957;BME280;47916;45.544;10.166;2022-07-24T00:39:40;100122.69;;;30.10;52.28
61957;BME280;47916;45.544;10.166;2022-07-24T00:39:51;100127.06;;;30.11;52.32
61957;BME280;47916;45.544;10.166;2022-07-24T00:40:03;100115.88;;;30.13;52.29
61957;BME280;47916;45.544;10.166;2022-07-24T00:40:15;100125.16;;;30.12;52.19
61957;BME280;47916;45.544;10.166;2022-07-24T00:40:26;100119.97;;;30.10;52.14
61957;BME280;47916;45.544;10.166;2022-07-24T00:40:39;100120.78;;;30.11;52.08
61957;BME280;47916;45.544;10.166;2022-07-24T00:40:50;100119.97;;;30.10;52.15
61957;BME280;47916;45.544;10.166;2022-07-24T00:41:03;100117.25;;;30.10;52.15
61957;BME280;47916;45.544;10.166;2022-07-24T00:41:14;100116.66;;;30.08;52.06
61957;BME280;47916;45.544;10.166;2022-07-24T00:41:26;100120.22;;;30.09;52.27
61957;BME280;47916;45.544;10.166;2022-07-24T00:41:39;100121.56;;;30.06;52.41
61957;BME280;47916;45.544;10.166;2022-07-24T00:41:50;100125.13;;;30.07;52.43
61957;BME280;47916;45.544;10.166;2022-07-24T00:42:02;100122.41;;;30.07;52.28
61957;BME280;47916;45.544;10.166;2022-07-24T00:42:14;100125.13;;;30.07;52.31
61957;BME280;47916;45.544;10.166;2022-07-24T00:42:25;100121.56;;;30.06;52.18
61957;BME280;47916;45.544;10.166;2022-07-24T00:42:38;100122.41;;;30.07;52.22
61957;BME280;47916;45.544;10.166;2022-07-24T00:42:50;100114.44;;;30.05;52.44
61957;BME280;47916;45.544;10.166;2022-07-24T00:43:02;100116.34;;;30.05;52.24
61957;BME280;47916;45.544;10.166;2022-07-24T00:43:14;100118.25;;;30.04;52.55
61957;BME280;47916;45.544;10.166;2022-07-24T00:43:25;100122.09;;;30.03;52.42
61957;BME280;47916;45.544;10.166;2022-07-24T00:44:13;100117.47;;;30.04;52.38
61957;BME280;47916;45.544;10.166;2022-07-24T00:44:25;100119.09;;;30.05;52.28
61957;BME280;47916;45.544;10.166;2022-07-24T00:44:36;100116.34;;;30.05;52.37
61957;BME280;47916;45.544;10.166;2022-07-24T00:44:48;100122.66;;;30.05;52.47
61957;BME280;47916;45.544;10.166;2022-07-24T00:44:59;100120.75;;;30.06;52.46
61957;BME280;47916;45.544;10.166;2022-07-24T00:45:11;100118.00;;;30.06;52.33
61957;BME280;47916;45.544;10.166;2022-07-24T00:45:35;100118.84;;;30.06;52.43
61957;BME280;47916;45.544;10.166;2022-07-24T00:45:48;100116.09;;;30.06;52.52
61957;BME280;47916;45.544;10.166;2022-07-24T00:45:59;100116.94;;;30.07;52.47
61957;BME280;47916;45.544;10.166;2022-07-24T00:46:11;100123.22;;;30.07;52.50
61957;BME280;47916;45.544;10.166;2022-07-24T00:46:26;100115.81;;;30.08;52.38
61957;BME280;47916;45.544;10.166;2022-07-24T00:46:40;100119.38;;;30.08;52.27
61957;BME280;47916;45.544;10.166;2022-07-24T00:46:51;100120.22;;;30.09;52.24
61957;BME280;47916;45.544;10.166;2022-07-24T00:47:03;100126.50;;;30.09;52.29
61957;BME280;47916;45.544;10.166;2022-07-24T00:47:15;100116.66;;;30.08;52.34
61957;BME280;47916;45.544;10.166;2022-07-24T00:47:27;100119.38;;;30.08;52.13
61957;BME280;47916;45.544;10.166;2022-07-24T00:47:40;100117.75;;;30.07;52.25
61957;BME280;47916;45.544;10.166;2022-07-24T00:47:52;100118.56;;;30.08;52.20
61957;BME280;47916;45.544;10.166;2022-07-24T00:48:08;100118.56;;;30.08;52.15
61957;BME280;47916;45.544;10.166;2022-07-24T00:48:20;100119.13;;;30.10;52.25
61957;BME280;47916;45.544;10.166;2022-07-24T00:48:33;100122.94;;;30.09;52.19
61957;BME280;47916;45.544;10.166;2022-07-24T00:48:47;100120.22;;;30.09;52.31
61957;BME280;47916;45.544;10.166;2022-07-24T00:48:59;100118.31;;;30.09;52.15
61957;BME280;47916;45.544;10.166;2022-07-24T00:49:13;100117.47;;;30.09;52.22
61957;BME280;47916;45.544;10.166;2022-07-24T00:49:39;100123.78;;;30.09;52.22
61957;BME280;47916;45.544;10.166;2022-07-24T00:49:53;100113.69;;;30.10;52.07
61957;BME280;47916;45.544;10.166;2022-07-24T00:50:04;100121.03;;;30.09;52.28
61957;BME280;47916;45.544;10.166;2022-07-24T00:50:19;100117.47;;;30.09;52.57
61957;BME280;47916;45.544;10.166;2022-07-24T00:50:44;100120.22;;;30.09;52.24
61957;BME280;47916;45.544;10.166;2022-07-24T00:50:56;100124.59;;;30.10;52.12
61957;BME280;47916;45.544;10.166;2022-07-24T00:51:07;100115.56;;;30.09;52.06
61957;BME280;47916;45.544;10.166;2022-07-24T00:51:19;100121.03;;;30.09;52.25
61957;BME280;47916;45.544;10.166;2022-07-24T00:51:33;100117.47;;;30.09;52.31
61957;BME280;47916;45.544;10.166;2022-07-24T00:51:46;100124.84;;;30.08;52.25
61957;BME280;47916;45.544;10.166;2022-07-24T00:51:58;100117.75;;;30.07;52.27
61957;BME280;47916;45.544;10.166;2022-07-24T00:52:09;100120.50;;;30.07;52.41
61957;BME280;47916;45.544;10.166;2022-07-24T00:52:21;100121.28;;;30.08;52.27
61957;BME280;47916;45.544;10.166;2022-07-24T00:52:33;100120.50;;;30.07;52.40
61957;BME280;47916;45.544;10.166;2022-07-24T00:52:45;100119.66;;;30.07;52.39
61957;BME280;47916;45.544;10.166;2022-07-24T00:52:58;100124.31;;;30.06;52.46
61957;BME280;47916;45.544;10.166;2022-07-24T00:53:10;100118.00;;;30.06;52.40
61957;BME280;47916;45.544;10.166;2022-07-24T00:53:21;100119.66;;;30.07;52.31
61957;BME280;47916;45.544;10.166;2022-07-24T00:53:33;100123.22;;;30.07;52.38
61957;BME280;47916;45.544;10.166;2022-07-24T00:53:45;100121.28;;;30.08;52.33
61957;BME280;47916;45.544;10.166;2022-07-24T00:53:56;100120.22;;;30.09;52.26
61957;BME280;47916;45.544;10.166;2022-07-24T00:54:10;100117.75;;;30.07;52.21
61957;BME280;47916;45.544;10.166;2022-07-24T00:54:22;100119.38;;;30.08;52.26
61957;BME280;47916;45.544;10.166;2022-07-24T00:54:34;100118.56;;;30.08;52.21
61957;BME280;47916;45.544;10.166;2022-07-24T00:54:47;100124.84;;;30.08;52.28
61957;BME280;47916;45.544;10.166;2022-07-24T00:54:58;100116.94;;;30.07;52.21
61957;BME280;47916;45.544;10.166;2022-07-24T00:55:10;100124.03;;;30.08;52.35
61957;BME280;47916;45.544;10.166;2022-07-24T00:55:25;100120.50;;;30.07;52.33
61957;BME280;47916;45.544;10.166;2022-07-24T00:55:37;100116.94;;;30.07;52.23
61957;BME280;47916;45.544;10.166;2022-07-24T00:55:49;100120.50;;;30.07;52.39
61957;BME280;47916;45.544;10.166;2022-07-24T00:56:00;100122.41;;;30.07;52.26
61957;BME280;47916;45.544;10.166;2022-07-24T00:56:12;100117.75;;;30.07;52.17
61957;BME280;47916;45.544;10.166;2022-07-24T00:56:24;100123.22;;;30.07;52.32
61957;BME280;47916;45.544;10.166;2022-07-24T00:56:36;100124.03;;;30.08;52.27
61957;BME280;47916;45.544;10.166;2022-07-24T00:56:50;100121.28;;;30.08;52.25
61957;BME280;47916;45.544;10.166;2022-07-24T00:57:02;100120.75;;;30.06;52.24
61957;BME280;47916;45.544;10.166;2022-07-24T00:57:13;100121.28;;;30.08;52.29
61957;BME280;47916;45.544;10.166;2022-07-24T00:57:25;100120.50;;;30.07;52.21
61957;BME280;47916;45.544;10.166;2022-07-24T00:57:36;100119.66;;;30.07;52.15
61957;BME280;47916;45.544;10.166;2022-07-24T00:57:48;100125.97;;;30.07;52.03
61957;BME280;47916;45.544;10.166;2022-07-24T00:58:00;100122.66;;;30.05;52.23
61957;BME280;47916;45.544;10.166;2022-07-24T00:58:11;100123.22;;;30.07;52.43
61957;BME280;47916;45.544;10.166;2022-07-24T00:58:23;100119.66;;;30.07;52.22
61957;BME280;47916;45.544;10.166;2022-07-24T00:58:36;100116.09;;;30.06;52.21
61957;BME280;47916;45.544;10.166;2022-07-24T00:58:48;100113.38;;;30.06;52.20
61957;BME280;47916;45.544;10.166;2022-07-24T00:59:03;100125.97;;;30.07;52.21
61957;BME280;47916;45.544;10.166;2022-07-24T00:59:15;100117.75;;;30.07;52.14
61957;BME280;47916;45.544;10.166;2022-07-24T00:59:27;100120.75;;;30.06;52.29
61957;BME280;47916;45.544;10.166;2022-07-24T00:59:38;100125.97;;;30.07;52.14
61957;BME280;47916;45.544;10.166;2022-07-24T00:59:50;100123.47;;;30.06;52.29
61957;BME280;47916;45.544;10.166;2022-07-24T01:00:04;100125.38;;;30.05;52.22
61957;BME280;47916;45.544;10.166;2022-07-24T01:00:17;100120.19;;;30.04;52.25
61957;BME280;47916;45.544;10.166;2022-07-24T01:00:29;100123.72;;;30.04;52.16
61957;BME280;47916;45.544;10.166;2022-07-24T01:00:41;100125.66;;;30.04;52.12
61957;BME280;47916;45.544;10.166;2022-07-24T01:00:52;100132.75;;;30.05;52.34
61957;BME280;47916;45.544;10.166;2022-07-24T01:01:04;100126.44;;;30.04;52.28
61957;BME280;47916;45.544;10.166;2022-07-24T01:01:16;100122.91;;;30.04;52.19
61957;BME280;47916;45.544;10.166;2022-07-24T01:01:28;100130.00;;;30.05;52.31
61957;BME280;47916;45.544;10.166;2022-07-24T01:01:39;100133.56;;;30.05;52.29
61957;BME280;47916;45.544;10.166;2022-07-24T01:01:51;100130.00;;;30.05;52.22
61957;BME280;47916;45.544;10.166;2022-07-24T01:02:03;100125.66;;;30.04;52.11
61957;BME280;47916;45.544;10.166;2022-07-24T01:02:14;100125.66;;;30.04;52.18
61957;BME280;47916;45.544;10.166;2022-07-24T01:02:26;100128.38;;;30.04;52.30
61957;BME280;47916;45.544;10.166;2022-07-24T01:02:41;100128.38;;;30.04;52.19
61957;BME280;47916;45.544;10.166;2022-07-24T01:02:52;100130.28;;;30.03;52.36
61957;BME280;47916;45.544;10.166;2022-07-24T01:03:05;100122.34;;;30.02;52.32